sensor_id;sensor_type;location;lat;lon;timestamp;P1;durP1;ratioP1;P2;durP2;ratioP2
12707;SDS011;6418;50.824;4.718;2023-02-08T00:01:00;37.03;;;20.47;;
12707;SDS011;6418;50.824;4.718;2023-02-08T00:03:32;34.17;;;19.50;;
12707;SDS011;6418;50.824;4.718;2023-02-08T00:06:02;37.03;;;20.17;;
12707;SDS011;6418;50.824;4.718;2023-02-08T00:08:29;36.97;;;19.63;;
12707;SDS011;6418;50.824;4.718;2023-02-08T00:10:57;35.77;;;20.17;;
12707;SDS011;6418;50.824;4.718;2023-02-08T00:13:26;40.70;;;21.30;;
12707;SDS011;6418;50.824;4.718;2023-02-08T00:15:55;36.30;;;20.27;;
12707;SDS011;6418;50.824;4.718;2023-02-08T00:18:22;36.63;;;20.30;;
12707;SDS011;6418;50.824;4.718;2023-02-08T00:20:51;36.20;;;19.37;;
12707;SDS011;6418;50.824;4.718;2023-02-08T00:23:19;34.40;;;18.90;;
12707;SDS011;6418;50.824;4.718;2023-02-08T00:25:46;34.40;;;19.07;;
12707;SDS011;6418;50.824;4.718;2023-02-08T00:28:15;34.93;;;19.33;;
12707;SDS011;6418;50.824;4.718;2023-02-08T00:30:45;38.27;;;20.13;;
12707;SDS011;6418;50.824;4.718;2023-02-08T00:33:13;33.50;;;19.30;;
12707;SDS011;6418;50.824;4.718;2023-02-08T00:35:40;34.57;;;19.73;;
12707;SDS011;6418;50.824;4.718;2023-02-08T00:38:07;36.63;;;19.60;;
12707;SDS011;6418;50.824;4.718;2023-02-08T00:40:34;36.67;;;19.80;;
12707;SDS011;6418;50.824;4.718;2023-02-08T00:43:01;38.37;;;20.43;;
12707;SDS011;6418;50.824;4.718;2023-02-08T00:45:28;36.03;;;20.37;;
12707;SDS011;6418;50.824;4.718;2023-02-08T00:47:56;35.70;;;20.03;;
12707;SDS011;6418;50.824;4.718;2023-02-08T00:50:24;35.90;;;21.27;;
12707;SDS011;6418;50.824;4.718;2023-02-08T00:52:51;39.70;;;21.23;;
12707;SDS011;6418;50.824;4.718;2023-02-08T00:55:18;36.13;;;20.37;;
12707;SDS011;6418;50.824;4.718;2023-02-08T00:57:45;38.50;;;20.40;;
12707;SDS011;6418;50.824;4.718;2023-02-08T01:00:12;39.37;;;21.10;;
12707;SDS011;6418;50.824;4.718;2023-02-08T01:02:39;41.53;;;20.63;;
12707;SDS011;6418;50.824;4.718;2023-02-08T01:05:07;37.20;;;20.27;;
12707;SDS011;6418;50.824;4.718;2023-02-08T01:07:36;38.07;;;21.13;;
12707;SDS011;6418;50.824;4.718;2023-02-08T01:10:03;40.80;;;20.43;;
12707;SDS011;6418;50.824;4.718;2023-02-08T01:12:30;39.87;;;20.93;;
12707;SDS011;6418;50.824;4.718;2023-02-08T01:14:58;37.73;;;20.67;;
12707;SDS011;6418;50.824;4.718;2023-02-08T01:17:24;40.33;;;21.00;;
12707;SDS011;6418;50.824;4.718;2023-02-08T01:19:52;38.60;;;21.13;;
12707;SDS011;6418;50.824;4.718;2023-02-08T01:22:19;41.23;;;21.27;;
12707;SDS011;6418;50.824;4.718;2023-02-08T01:24:47;42.70;;;21.37;;
12707;SDS011;6418;50.824;4.718;2023-02-08T01:27:14;40.93;;;21.40;;
12707;SDS011;6418;50.824;4.718;2023-02-08T01:29:41;39.20;;;20.47;;
12707;SDS011;6418;50.824;4.718;2023-02-08T01:32:08;38.73;;;21.17;;
12707;SDS011;6418;50.824;4.718;2023-02-08T01:34:35;38.40;;;21.57;;
12707;SDS011;6418;50.824;4.718;2023-02-08T01:37:02;41.80;;;22.53;;
12707;SDS011;6418;50.824;4.718;2023-02-08T01:39:29;38.10;;;21.50;;
12707;SDS011;6418;50.824;4.718;2023-02-08T01:41:57;41.90;;;22.20;;
12707;SDS011;6418;50.824;4.718;2023-02-08T01:47:47;40.87;;;22.40;;
12707;SDS011;6418;50.824;4.718;2023-02-08T01:50:18;38.50;;;20.97;;
12707;SDS011;6418;50.824;4.718;2023-02-08T01:52:47;38.33;;;21.70;;
12707;SDS011;6418;50.824;4.718;2023-02-08T01:55:18;37.63;;;20.33;;
12707;SDS011;6418;50.824;4.718;2023-02-08T01:57:50;36.30;;;20.77;;
12707;SDS011;6418;50.824;4.718;2023-02-08T02:00:20;40.10;;;20.23;;
12707;SDS011;6418;50.824;4.718;2023-02-08T02:02:48;38.47;;;22.30;;
12707;SDS011;6418;50.824;4.718;2023-02-08T02:05:18;41.87;;;20.97;;
12707;SDS011;6418;50.824;4.718;2023-02-08T02:07:46;44.40;;;21.90;;
12707;SDS011;6418;50.824;4.718;2023-02-08T02:10:17;42.00;;;21.77;;
12707;SDS011;6418;50.824;4.718;2023-02-08T02:12:49;41.00;;;21.43;;
12707;SDS011;6418;50.824;4.718;2023-02-08T02:15:17;38.67;;;20.80;;
12707;SDS011;6418;50.824;4.718;2023-02-08T02:17:44;42.43;;;22.50;;
12707;SDS011;6418;50.824;4.718;2023-02-08T02:20:13;39.63;;;21.17;;
12707;SDS011;6418;50.824;4.718;2023-02-08T02:23:02;39.70;;;21.13;;
12707;SDS011;6418;50.824;4.718;2023-02-08T02:29:07;37.90;;;19.73;;
12707;SDS011;6418;50.824;4.718;2023-02-08T02:31:49;38.83;;;19.77;;
12707;SDS011;6418;50.824;4.718;2023-02-08T02:34:33;36.63;;;20.10;;
12707;SDS011;6418;50.824;4.718;2023-02-08T02:37:09;39.90;;;19.90;;
12707;SDS011;6418;50.824;4.718;2023-02-08T02:39:42;37.37;;;19.60;;
12707;SDS011;6418;50.824;4.718;2023-02-08T02:42:19;37.13;;;20.23;;
12707;SDS011;6418;50.824;4.718;2023-02-08T02:45:12;41.20;;;20.57;;
12707;SDS011;6418;50.824;4.718;2023-02-08T02:47:50;39.37;;;21.00;;
12707;SDS011;6418;50.824;4.718;2023-02-08T02:50:28;40.07;;;20.33;;
12707;SDS011;6418;50.824;4.718;2023-02-08T02:53:02;37.97;;;19.83;;
12707;SDS011;6418;50.824;4.718;2023-02-08T02:55:32;43.33;;;21.57;;
12707;SDS011;6418;50.824;4.718;2023-02-08T02:58:05;41.27;;;19.80;;
12707;SDS011;6418;50.824;4.718;2023-02-08T03:00:36;38.73;;;20.00;;
12707;SDS011;6418;50.824;4.718;2023-02-08T03:03:04;41.30;;;21.63;;
12707;SDS011;6418;50.824;4.718;2023-02-08T03:05:32;40.47;;;20.77;;
12707;SDS011;6418;50.824;4.718;2023-02-08T03:11:09;35.57;;;18.83;;
12707;SDS011;6418;50.824;4.718;2023-02-08T03:13:47;37.63;;;20.17;;
12707;SDS011;6418;50.824;4.718;2023-02-08T03:16:25;39.33;;;19.23;;
12707;SDS011;6418;50.824;4.718;2023-02-08T03:19:03;39.83;;;20.20;;
12707;SDS011;6418;50.824;4.718;2023-02-08T03:21:37;38.87;;;20.67;;
12707;SDS011;6418;50.824;4.718;2023-02-08T03:24:09;42.20;;;21.90;;
12707;SDS011;6418;50.824;4.718;2023-02-08T03:26:51;40.97;;;21.53;;
12707;SDS011;6418;50.824;4.718;2023-02-08T03:29:24;44.43;;;20.93;;
12707;SDS011;6418;50.824;4.718;2023-02-08T03:32:01;36.87;;;20.77;;
12707;SDS011;6418;50.824;4.718;2023-02-08T03:34:37;39.90;;;20.13;;
12707;SDS011;6418;50.824;4.718;2023-02-08T03:37:12;40.90;;;20.20;;
12707;SDS011;6418;50.824;4.718;2023-02-08T03:39:43;42.27;;;21.03;;
12707;SDS011;6418;50.824;4.718;2023-02-08T03:42:14;43.10;;;21.63;;
12707;SDS011;6418;50.824;4.718;2023-02-08T03:44:45;40.37;;;20.53;;
12707;SDS011;6418;50.824;4.718;2023-02-08T03:47:17;39.50;;;20.10;;
12707;SDS011;6418;50.824;4.718;2023-02-08T03:49:49;38.00;;;19.97;;
12707;SDS011;6418;50.824;4.718;2023-02-08T03:52:18;37.80;;;20.13;;
12707;SDS011;6418;50.824;4.718;2023-02-08T03:54:48;40.20;;;19.33;;
12707;SDS011;6418;50.824;4.718;2023-02-08T03:57:17;37.80;;;20.00;;
12707;SDS011;6418;50.824;4.718;2023-02-08T03:59:51;36.60;;;19.73;;
12707;SDS011;6418;50.824;4.718;2023-02-08T04:02:22;37.20;;;19.80;;
12707;SDS011;6418;50.824;4.718;2023-02-08T04:04:54;42.77;;;21.47;;
12707;SDS011;6418;50.824;4.718;2023-02-08T04:07:23;39.40;;;20.17;;
12707;SDS011;6418;50.824;4.718;2023-02-08T04:09:50;36.17;;;20.57;;
12707;SDS011;6418;50.824;4.718;2023-02-08T04:12:17;38.77;;;20.43;;
12707;SDS011;6418;50.824;4.718;2023-02-08T04:14:44;41.57;;;19.83;;
12707;SDS011;6418;50.824;4.718;2023-02-08T04:17:12;37.03;;;19.87;;
12707;SDS011;6418;50.824;4.718;2023-02-08T04:19:39;39.20;;;21.17;;
12707;SDS011;6418;50.824;4.718;2023-02-08T04:22:07;43.57;;;21.17;;
12707;SDS011;6418;50.824;4.718;2023-02-08T04:24:34;39.37;;;20.53;;
12707;SDS011;6418;50.824;4.718;2023-02-08T04:27:01;37.13;;;20.73;;
12707;SDS011;6418;50.824;4.718;2023-02-08T04:29:28;40.23;;;20.00;;
12707;SDS011;6418;50.824;4.718;2023-02-08T04:31:58;39.90;;;20.40;;
12707;SDS011;6418;50.824;4.718;2023-02-08T04:34:31;38.57;;;20.03;;
12707;SDS011;6418;50.824;4.718;2023-02-08T04:36:58;37.13;;;19.73;;
12707;SDS011;6418;50.824;4.718;2023-02-08T04:39:27;38.73;;;20.40;;
12707;SDS011;6418;50.824;4.718;2023-02-08T04:41:54;35.93;;;19.97;;
12707;SDS011;6418;50.824;4.718;2023-02-08T04:44:21;36.23;;;20.03;;
12707;SDS011;6418;50.824;4.718;2023-02-08T04:46:48;40.07;;;19.40;;
12707;SDS011;6418;50.824;4.718;2023-02-08T04:49:16;38.47;;;20.23;;
12707;SDS011;6418;50.824;4.718;2023-02-08T04:51:43;38.00;;;19.97;;
12707;SDS011;6418;50.824;4.718;2023-02-08T04:54:10;35.93;;;19.53;;
12707;SDS011;6418;50.824;4.718;2023-02-08T04:56:40;35.80;;;19.23;;
12707;SDS011;6418;50.824;4.718;2023-02-08T04:59:07;38.43;;;19.97;;
12707;SDS011;6418;50.824;4.718;2023-02-08T05:01:34;40.10;;;20.50;;
12707;SDS011;6418;50.824;4.718;2023-02-08T05:04:01;33.87;;;18.77;;
12707;SDS011;6418;50.824;4.718;2023-02-08T05:06:28;35.43;;;18.67;;
12707;SDS011;6418;50.824;4.718;2023-02-08T05:08:55;39.17;;;20.03;;
12707;SDS011;6418;50.824;4.718;2023-02-08T05:11:23;38.07;;;21.67;;
12707;SDS011;6418;50.824;4.718;2023-02-08T05:13:52;38.63;;;20.57;;
12707;SDS011;6418;50.824;4.718;2023-02-08T05:16:19;37.13;;;19.90;;
12707;SDS011;6418;50.824;4.718;2023-02-08T05:18:46;34.60;;;20.10;;
12707;SDS011;6418;50.824;4.718;2023-02-08T05:21:13;38.53;;;19.50;;
12707;SDS011;6418;50.824;4.718;2023-02-08T05:23:40;37.60;;;20.70;;
12707;SDS011;6418;50.824;4.718;2023-02-08T05:26:07;38.13;;;19.37;;
12707;SDS011;6418;50.824;4.718;2023-02-08T05:28:35;37.13;;;19.80;;
12707;SDS011;6418;50.824;4.718;2023-02-08T05:31:08;35.37;;;18.73;;
12707;SDS011;6418;50.824;4.718;2023-02-08T05:33:36;35.77;;;19.37;;
12707;SDS011;6418;50.824;4.718;2023-02-08T05:36:03;37.10;;;20.17;;
12707;SDS011;6418;50.824;4.718;2023-02-08T05:38:30;39.93;;;21.93;;
12707;SDS011;6418;50.824;4.718;2023-02-08T05:40:57;39.43;;;21.77;;
12707;SDS011;6418;50.824;4.718;2023-02-08T05:43:24;36.93;;;20.37;;
12707;SDS011;6418;50.824;4.718;2023-02-08T05:45:52;37.43;;;19.30;;
12707;SDS011;6418;50.824;4.718;2023-02-08T05:48:20;39.53;;;20.97;;
12707;SDS011;6418;50.824;4.718;2023-02-08T05:50:47;34.33;;;19.10;;
12707;SDS011;6418;50.824;4.718;2023-02-08T05:53:14;37.27;;;19.93;;
12707;SDS011;6418;50.824;4.718;2023-02-08T05:55:42;33.90;;;18.77;;
12707;SDS011;6418;50.824;4.718;2023-02-08T05:58:10;37.73;;;19.93;;
12707;SDS011;6418;50.824;4.718;2023-02-08T06:00:37;39.90;;;21.20;;
12707;SDS011;6418;50.824;4.718;2023-02-08T06:03:05;40.43;;;21.07;;
12707;SDS011;6418;50.824;4.718;2023-02-08T06:05:35;37.17;;;20.60;;
12707;SDS011;6418;50.824;4.718;2023-02-08T06:08:03;38.63;;;19.37;;
12707;SDS011;6418;50.824;4.718;2023-02-08T06:10:30;36.80;;;19.53;;
12707;SDS011;6418;50.824;4.718;2023-02-08T06:12:57;36.07;;;19.27;;
12707;SDS011;6418;50.824;4.718;2023-02-08T06:15:24;37.67;;;19.53;;
12707;SDS011;6418;50.824;4.718;2023-02-08T06:17:51;36.87;;;20.00;;
12707;SDS011;6418;50.824;4.718;2023-02-08T06:20:18;34.43;;;19.23;;
12707;SDS011;6418;50.824;4.718;2023-02-08T06:22:47;38.93;;;19.70;;
12707;SDS011;6418;50.824;4.718;2023-02-08T06:25:14;34.93;;;18.73;;
12707;SDS011;6418;50.824;4.718;2023-02-08T06:27:41;36.37;;;18.77;;
12707;SDS011;6418;50.824;4.718;2023-02-08T06:30:08;37.20;;;19.00;;
12707;SDS011;6418;50.824;4.718;2023-02-08T06:32:36;33.10;;;18.93;;
12707;SDS011;6418;50.824;4.718;2023-02-08T06:35:03;38.33;;;20.50;;
12707;SDS011;6418;50.824;4.718;2023-02-08T06:37:30;38.83;;;19.67;;
12707;SDS011;6418;50.824;4.718;2023-02-08T06:40:01;42.50;;;19.50;;
12707;SDS011;6418;50.824;4.718;2023-02-08T06:42:28;40.60;;;21.33;;
12707;SDS011;6418;50.824;4.718;2023-02-08T06:44:55;44.50;;;23.47;;
12707;SDS011;6418;50.824;4.718;2023-02-08T06:47:23;38.87;;;22.07;;
12707;SDS011;6418;50.824;4.718;2023-02-08T06:49:51;40.67;;;23.07;;
12707;SDS011;6418;50.824;4.718;2023-02-08T06:52:18;42.57;;;22.93;;
12707;SDS011;6418;50.824;4.718;2023-02-08T06:54:45;41.17;;;22.90;;
12707;SDS011;6418;50.824;4.718;2023-02-08T06:57:14;43.33;;;23.37;;
12707;SDS011;6418;50.824;4.718;2023-02-08T06:59:41;36.03;;;21.73;;
12707;SDS011;6418;50.824;4.718;2023-02-08T07:02:10;37.07;;;20.90;;
12707;SDS011;6418;50.824;4.718;2023-02-08T07:04:38;38.33;;;20.77;;
12707;SDS011;6418;50.824;4.718;2023-02-08T07:07:05;39.50;;;20.70;;
12707;SDS011;6418;50.824;4.718;2023-02-08T07:09:33;43.33;;;20.60;;
12707;SDS011;6418;50.824;4.718;2023-02-08T07:12:00;34.90;;;19.67;;
12707;SDS011;6418;50.824;4.718;2023-02-08T07:14:31;35.87;;;18.70;;
12707;SDS011;6418;50.824;4.718;2023-02-08T07:16:58;33.80;;;17.57;;
12707;SDS011;6418;50.824;4.718;2023-02-08T07:19:29;35.07;;;18.33;;
12707;SDS011;6418;50.824;4.718;2023-02-08T07:21:56;35.50;;;17.77;;
12707;SDS011;6418;50.824;4.718;2023-02-08T07:24:28;39.10;;;19.33;;
12707;SDS011;6418;50.824;4.718;2023-02-08T07:26:55;35.00;;;17.33;;
12707;SDS011;6418;50.824;4.718;2023-02-08T07:29:22;34.50;;;18.17;;
12707;SDS011;6418;50.824;4.718;2023-02-08T07:31:51;38.77;;;18.87;;
12707;SDS011;6418;50.824;4.718;2023-02-08T07:34:17;40.23;;;17.57;;
12707;SDS011;6418;50.824;4.718;2023-02-08T07:36:46;36.53;;;17.30;;
12707;SDS011;6418;50.824;4.718;2023-02-08T07:39:17;33.80;;;17.93;;
12707;SDS011;6418;50.824;4.718;2023-02-08T07:41:44;36.07;;;18.97;;
12707;SDS011;6418;50.824;4.718;2023-02-08T07:44:12;31.70;;;17.63;;
12707;SDS011;6418;50.824;4.718;2023-02-08T07:46:39;34.93;;;17.83;;
12707;SDS011;6418;50.824;4.718;2023-02-08T07:49:08;38.00;;;18.90;;
12707;SDS011;6418;50.824;4.718;2023-02-08T07:51:35;36.93;;;17.50;;
12707;SDS011;6418;50.824;4.718;2023-02-08T07:54:02;32.13;;;17.10;;
12707;SDS011;6418;50.824;4.718;2023-02-08T07:56:32;36.03;;;18.07;;
12707;SDS011;6418;50.824;4.718;2023-02-08T07:58:59;37.17;;;18.80;;
12707;SDS011;6418;50.824;4.718;2023-02-08T08:01:26;33.80;;;18.27;;
12707;SDS011;6418;50.824;4.718;2023-02-08T08:03:53;36.37;;;18.63;;
12707;SDS011;6418;50.824;4.718;2023-02-08T08:06:22;32.40;;;18.33;;
12707;SDS011;6418;50.824;4.718;2023-02-08T08:08:49;35.53;;;17.80;;
12707;SDS011;6418;50.824;4.718;2023-02-08T08:11:17;33.90;;;18.07;;
12707;SDS011;6418;50.824;4.718;2023-02-08T08:13:44;37.23;;;18.00;;
12707;SDS011;6418;50.824;4.718;2023-02-08T08:16:11;34.70;;;18.17;;
12707;SDS011;6418;50.824;4.718;2023-02-08T08:18:38;42.53;;;23.07;;
12707;SDS011;6418;50.824;4.718;2023-02-08T08:21:06;36.10;;;20.93;;
12707;SDS011;6418;50.824;4.718;2023-02-08T08:23:34;40.93;;;21.47;;
12707;SDS011;6418;50.824;4.718;2023-02-08T08:26:05;41.67;;;21.00;;
12707;SDS011;6418;50.824;4.718;2023-02-08T08:28:33;35.03;;;19.40;;
12707;SDS011;6418;50.824;4.718;2023-02-08T08:31:00;37.23;;;19.80;;
12707;SDS011;6418;50.824;4.718;2023-02-08T08:33:27;31.53;;;18.40;;
12707;SDS011;6418;50.824;4.718;2023-02-08T08:35:54;36.17;;;19.13;;
12707;SDS011;6418;50.824;4.718;2023-02-08T08:38:21;38.20;;;20.77;;
12707;SDS011;6418;50.824;4.718;2023-02-08T08:40:49;40.47;;;19.87;;
12707;SDS011;6418;50.824;4.718;2023-02-08T08:43:16;35.57;;;19.73;;
12707;SDS011;6418;50.824;4.718;2023-02-08T08:45:43;35.83;;;20.37;;
12707;SDS011;6418;50.824;4.718;2023-02-08T08:48:10;35.60;;;19.97;;
12707;SDS011;6418;50.824;4.718;2023-02-08T08:50:37;36.57;;;19.97;;
12707;SDS011;6418;50.824;4.718;2023-02-08T08:53:04;36.70;;;19.87;;
12707;SDS011;6418;50.824;4.718;2023-02-08T08:55:31;37.43;;;19.67;;
12707;SDS011;6418;50.824;4.718;2023-02-08T08:57:59;31.93;;;18.87;;
12707;SDS011;6418;50.824;4.718;2023-02-08T09:00:26;38.10;;;19.33;;
12707;SDS011;6418;50.824;4.718;2023-02-08T09:02:54;35.33;;;19.20;;
12707;SDS011;6418;50.824;4.718;2023-02-08T09:05:21;34.47;;;19.77;;
12707;SDS011;6418;50.824;4.718;2023-02-08T09:07:49;38.50;;;20.03;;
12707;SDS011;6418;50.824;4.718;2023-02-08T09:10:16;31.43;;;17.57;;
12707;SDS011;6418;50.824;4.718;2023-02-08T09:12:44;37.20;;;20.23;;
12707;SDS011;6418;50.824;4.718;2023-02-08T09:15:12;40.30;;;22.17;;
12707;SDS011;6418;50.824;4.718;2023-02-08T09:17:39;34.53;;;18.50;;
12707;SDS011;6418;50.824;4.718;2023-02-08T09:20:08;38.23;;;20.90;;
12707;SDS011;6418;50.824;4.718;2023-02-08T09:22:36;33.40;;;18.03;;
12707;SDS011;6418;50.824;4.718;2023-02-08T09:25:03;30.43;;;16.97;;
12707;SDS011;6418;50.824;4.718;2023-02-08T09:27:31;30.90;;;15.40;;
12707;SDS011;6418;50.824;4.718;2023-02-08T09:29:58;22.20;;;13.53;;
12707;SDS011;6418;50.824;4.718;2023-02-08T09:32:29;25.10;;;13.43;;
12707;SDS011;6418;50.824;4.718;2023-02-08T09:34:58;23.73;;;13.47;;
12707;SDS011;6418;50.824;4.718;2023-02-08T09:37:26;27.33;;;13.27;;
12707;SDS011;6418;50.824;4.718;2023-02-08T09:39:53;26.90;;;14.33;;
12707;SDS011;6418;50.824;4.718;2023-02-08T09:42:27;25.63;;;12.37;;
12707;SDS011;6418;50.824;4.718;2023-02-08T09:47:56;24.10;;;12.20;;
12707;SDS011;6418;50.824;4.718;2023-02-08T09:50:31;20.43;;;11.10;;
12707;SDS011;6418;50.824;4.718;2023-02-08T09:53:02;19.30;;;10.97;;
12707;SDS011;6418;50.824;4.718;2023-02-08T09:55:33;19.30;;;10.40;;
12707;SDS011;6418;50.824;4.718;2023-02-08T09:58:04;18.27;;;9.80;;
12707;SDS011;6418;50.824;4.718;2023-02-08T10:00:45;18.63;;;9.47;;
12707;SDS011;6418;50.824;4.718;2023-02-08T10:03:20;18.43;;;9.73;;
12707;SDS011;6418;50.824;4.718;2023-02-08T10:05:53;18.10;;;8.80;;
12707;SDS011;6418;50.824;4.718;2023-02-08T10:08:20;19.43;;;9.47;;
12707;SDS011;6418;50.824;4.718;2023-02-08T10:10:49;17.00;;;8.87;;
12707;SDS011;6418;50.824;4.718;2023-02-08T10:13:24;17.77;;;8.50;;
12707;SDS011;6418;50.824;4.718;2023-02-08T10:16:06;16.87;;;8.40;;
12707;SDS011;6418;50.824;4.718;2023-02-08T10:18:43;15.40;;;8.17;;
12707;SDS011;6418;50.824;4.718;2023-02-08T10:21:28;16.27;;;8.17;;
12707;SDS011;6418;50.824;4.718;2023-02-08T10:24:21;13.10;;;7.20;;
12707;SDS011;6418;50.824;4.718;2023-02-08T10:27:04;15.00;;;7.40;;
12707;SDS011;6418;50.824;4.718;2023-02-08T10:32:38;14.87;;;7.17;;
12707;SDS011;6418;50.824;4.718;2023-02-08T10:35:20;13.87;;;7.27;;
12707;SDS011;6418;50.824;4.718;2023-02-08T10:37:51;12.97;;;6.80;;
12707;SDS011;6418;50.824;4.718;2023-02-08T10:40:25;14.80;;;7.07;;
12707;SDS011;6418;50.824;4.718;2023-02-08T10:42:59;15.07;;;7.83;;
12707;SDS011;6418;50.824;4.718;2023-02-08T10:45:34;13.07;;;7.00;;
12707;SDS011;6418;50.824;4.718;2023-02-08T10:48:07;16.53;;;7.43;;
12707;SDS011;6418;50.824;4.718;2023-02-08T10:50:42;15.27;;;7.23;;
12707;SDS011;6418;50.824;4.718;2023-02-08T10:53:12;13.67;;;7.17;;
12707;SDS011;6418;50.824;4.718;2023-02-08T10:55:41;18.27;;;7.67;;
12707;SDS011;6418;50.824;4.718;2023-02-08T10:58:09;14.53;;;7.30;;
12707;SDS011;6418;50.824;4.718;2023-02-08T11:00:40;15.17;;;7.20;;
12707;SDS011;6418;50.824;4.718;2023-02-08T11:03:12;13.63;;;6.57;;
12707;SDS011;6418;50.824;4.718;2023-02-08T11:05:43;13.07;;;6.20;;
12707;SDS011;6418;50.824;4.718;2023-02-08T11:08:11;12.67;;;6.67;;
12707;SDS011;6418;50.824;4.718;2023-02-08T11:10:42;14.23;;;6.90;;
12707;SDS011;6418;50.824;4.718;2023-02-08T11:13:16;12.53;;;6.10;;
12707;SDS011;6418;50.824;4.718;2023-02-08T11:15:45;15.07;;;6.30;;
12707;SDS011;6418;50.824;4.718;2023-02-08T11:18:18;14.13;;;7.17;;
12707;SDS011;6418;50.824;4.718;2023-02-08T11:20:50;13.73;;;6.70;;
12707;SDS011;6418;50.824;4.718;2023-02-08T11:23:19;14.47;;;7.33;;
12707;SDS011;6418;50.824;4.718;2023-02-08T11:25:51;13.87;;;7.13;;
12707;SDS011;6418;50.824;4.718;2023-02-08T11:28:22;13.77;;;7.97;;
12707;SDS011;6418;50.824;4.718;2023-02-08T11:30:56;13.23;;;6.97;;
12707;SDS011;6418;50.824;4.718;2023-02-08T11:33:24;14.77;;;7.03;;
12707;SDS011;6418;50.824;4.718;2023-02-08T11:36:04;17.93;;;6.83;;
12707;SDS011;6418;50.824;4.718;2023-02-08T11:38:34;14.53;;;7.20;;
12707;SDS011;6418;50.824;4.718;2023-02-08T11:41:12;13.70;;;6.90;;
12707;SDS011;6418;50.824;4.718;2023-02-08T11:43:43;14.13;;;7.03;;
12707;SDS011;6418;50.824;4.718;2023-02-08T11:46:21;13.03;;;6.23;;
12707;SDS011;6418;50.824;4.718;2023-02-08T11:48:50;11.57;;;6.37;;
12707;SDS011;6418;50.824;4.718;2023-02-08T11:51:25;14.67;;;6.87;;
12707;SDS011;6418;50.824;4.718;2023-02-08T11:53:55;12.23;;;6.13;;
12707;SDS011;6418;50.824;4.718;2023-02-08T11:56:23;12.83;;;6.70;;
12707;SDS011;6418;50.824;4.718;2023-02-08T11:58:56;12.07;;;6.13;;
12707;SDS011;6418;50.824;4.718;2023-02-08T12:01:25;13.43;;;6.10;;
12707;SDS011;6418;50.824;4.718;2023-02-08T12:03:54;12.57;;;6.17;;
12707;SDS011;6418;50.824;4.718;2023-02-08T12:06:28;11.70;;;6.17;;
12707;SDS011;6418;50.824;4.718;2023-02-08T12:09:15;11.10;;;6.17;;
12707;SDS011;6418;50.824;4.718;2023-02-08T12:11:52;12.63;;;6.00;;
12707;SDS011;6418;50.824;4.718;2023-02-08T12:14:38;12.33;;;6.00;;
12707;SDS011;6418;50.824;4.718;2023-02-08T12:17:24;15.17;;;6.87;;
12707;SDS011;6418;50.824;4.718;2023-02-08T12:20:11;12.30;;;6.10;;
12707;SDS011;6418;50.824;4.718;2023-02-08T12:22:59;13.47;;;6.37;;
12707;SDS011;6418;50.824;4.718;2023-02-08T12:25:45;11.43;;;6.17;;
12707;SDS011;6418;50.824;4.718;2023-02-08T12:28:21;13.27;;;5.80;;
12707;SDS011;6418;50.824;4.718;2023-02-08T12:30:56;11.67;;;5.70;;
12707;SDS011;6418;50.824;4.718;2023-02-08T12:33:32;12.57;;;5.70;;
12707;SDS011;6418;50.824;4.718;2023-02-08T12:36:10;10.90;;;5.80;;
12707;SDS011;6418;50.824;4.718;2023-02-08T12:45:05;10.20;;;5.63;;
12707;SDS011;6418;50.824;4.718;2023-02-08T12:47:52;13.10;;;5.83;;
12707;SDS011;6418;50.824;4.718;2023-02-08T12:50:28;10.43;;;5.63;;
12707;SDS011;6418;50.824;4.718;2023-02-08T12:53:01;12.33;;;5.70;;
12707;SDS011;6418;50.824;4.718;2023-02-08T12:55:36;10.20;;;5.43;;
12707;SDS011;6418;50.824;4.718;2023-02-08T12:58:11;11.50;;;6.00;;
12707;SDS011;6418;50.824;4.718;2023-02-08T13:00:47;10.97;;;5.60;;
12707;SDS011;6418;50.824;4.718;2023-02-08T13:03:17;12.77;;;6.00;;
12707;SDS011;6418;50.824;4.718;2023-02-08T13:05:56;12.23;;;6.20;;
12707;SDS011;6418;50.824;4.718;2023-02-08T13:08:25;11.30;;;5.90;;
12707;SDS011;6418;50.824;4.718;2023-02-08T13:10:58;11.50;;;5.37;;
12707;SDS011;6418;50.824;4.718;2023-02-08T13:13:30;12.17;;;5.63;;
12707;SDS011;6418;50.824;4.718;2023-02-08T13:16:02;11.33;;;5.47;;
12707;SDS011;6418;50.824;4.718;2023-02-08T13:18:34;11.27;;;5.40;;
12707;SDS011;6418;50.824;4.718;2023-02-08T13:21:05;11.23;;;5.60;;
12707;SDS011;6418;50.824;4.718;2023-02-08T13:23:37;10.97;;;5.57;;
12707;SDS011;6418;50.824;4.718;2023-02-08T13:26:08;10.13;;;5.43;;
12707;SDS011;6418;50.824;4.718;2023-02-08T13:28:39;10.97;;;5.70;;
12707;SDS011;6418;50.824;4.718;2023-02-08T13:31:13;11.30;;;5.50;;
12707;SDS011;6418;50.824;4.718;2023-02-08T13:33:44;12.27;;;5.90;;
12707;SDS011;6418;50.824;4.718;2023-02-08T13:36:18;12.00;;;6.00;;
12707;SDS011;6418;50.824;4.718;2023-02-08T13:38:47;10.57;;;5.50;;
12707;SDS011;6418;50.824;4.718;2023-02-08T13:41:16;11.83;;;5.67;;
12707;SDS011;6418;50.824;4.718;2023-02-08T13:43:47;11.40;;;5.70;;
12707;SDS011;6418;50.824;4.718;2023-02-08T13:46:18;11.87;;;6.00;;
12707;SDS011;6418;50.824;4.718;2023-02-08T13:48:47;12.50;;;5.70;;
12707;SDS011;6418;50.824;4.718;2023-02-08T13:54:19;11.37;;;5.90;;
12707;SDS011;6418;50.824;4.718;2023-02-08T13:56:48;11.77;;;5.77;;
12707;SDS011;6418;50.824;4.718;2023-02-08T13:59:27;13.00;;;5.77;;
12707;SDS011;6418;50.824;4.718;2023-02-08T14:02:17;10.23;;;5.50;;
12707;SDS011;6418;50.824;4.718;2023-02-08T14:04:51;11.13;;;5.50;;
12707;SDS011;6418;50.824;4.718;2023-02-08T14:07:22;13.43;;;6.23;;
12707;SDS011;6418;50.824;4.718;2023-02-08T14:10:05;12.37;;;6.07;;
12707;SDS011;6418;50.824;4.718;2023-02-08T14:12:45;11.97;;;5.97;;
12707;SDS011;6418;50.824;4.718;2023-02-08T14:15:28;15.77;;;6.27;;
12707;SDS011;6418;50.824;4.718;2023-02-08T14:18:01;11.33;;;5.63;;
12707;SDS011;6418;50.824;4.718;2023-02-08T14:20:33;10.37;;;5.60;;
12707;SDS011;6418;50.824;4.718;2023-02-08T14:23:04;12.60;;;5.60;;
12707;SDS011;6418;50.824;4.718;2023-02-08T14:25:45;12.83;;;6.10;;
12707;SDS011;6418;50.824;4.718;2023-02-08T14:28:29;12.87;;;5.23;;
12707;SDS011;6418;50.824;4.718;2023-02-08T14:30:59;13.70;;;6.03;;
12707;SDS011;6418;50.824;4.718;2023-02-08T14:33:28;12.37;;;5.80;;
12707;SDS011;6418;50.824;4.718;2023-02-08T14:36:00;9.97;;;5.37;;
12707;SDS011;6418;50.824;4.718;2023-02-08T14:41:50;13.60;;;5.90;;
12707;SDS011;6418;50.824;4.718;2023-02-08T14:50:19;10.97;;;5.60;;
12707;SDS011;6418;50.824;4.718;2023-02-08T14:52:51;12.63;;;5.80;;
12707;SDS011;6418;50.824;4.718;2023-02-08T14:55:36;11.87;;;5.53;;
12707;SDS011;6418;50.824;4.718;2023-02-08T14:58:06;11.43;;;5.53;;
12707;SDS011;6418;50.824;4.718;2023-02-08T15:00:39;12.53;;;5.50;;
12707;SDS011;6418;50.824;4.718;2023-02-08T15:03:11;11.97;;;5.90;;
12707;SDS011;6418;50.824;4.718;2023-02-08T15:05:43;10.03;;;5.30;;
12707;SDS011;6418;50.824;4.718;2023-02-08T15:08:22;11.23;;;5.47;;
12707;SDS011;6418;50.824;4.718;2023-02-08T15:10:50;11.87;;;5.63;;
12707;SDS011;6418;50.824;4.718;2023-02-08T15:13:18;12.03;;;5.83;;
12707;SDS011;6418;50.824;4.718;2023-02-08T15:15:51;13.00;;;5.73;;
12707;SDS011;6418;50.824;4.718;2023-02-08T15:18:21;15.57;;;6.50;;
12707;SDS011;6418;50.824;4.718;2023-02-08T15:23:40;12.00;;;5.80;;
12707;SDS011;6418;50.824;4.718;2023-02-08T15:26:18;13.20;;;5.73;;
12707;SDS011;6418;50.824;4.718;2023-02-08T15:28:46;11.53;;;5.63;;
12707;SDS011;6418;50.824;4.718;2023-02-08T15:31:16;14.23;;;5.70;;
12707;SDS011;6418;50.824;4.718;2023-02-08T15:33:45;14.23;;;6.07;;
12707;SDS011;6418;50.824;4.718;2023-02-08T15:36:14;11.97;;;5.80;;